createdAt,value
2018-09-05T00:00:02.725Z,0
2018-09-05T00:05:03.156Z,0
2018-09-05T00:10:02.602Z,0
2018-09-05T00:15:03.075Z,0
2018-09-05T00:20:02.627Z,0
2018-09-05T00:25:03.116Z,0
2018-09-05T00:30:02.551Z,0
2018-09-05T00:35:02.932Z,0
2018-09-05T00:40:02.381Z,0
2018-09-05T00:45:02.807Z,0
2018-09-05T00:50:03.172Z,0
2018-09-05T00:55:02.717Z,0
2018-09-05T01:00:02.425Z,0
2018-09-05T01:05:02.927Z,0
2018-09-05T01:10:02.583Z,0
2018-09-05T01:15:03.033Z,0
2018-09-05T01:20:02.482Z,0
2018-09-05T01:25:02.885Z,0
2018-09-05T01:30:03.344Z,0
2018-09-05T01:35:02.787Z,0
2018-09-05T01:40:03.327Z,0
2018-09-05T01:45:02.712Z,0
2018-09-05T01:50:03.096Z,0
2018-09-05T01:55:02.477Z,0
2018-09-05T02:00:02.902Z,0
2018-09-05T02:05:03.359Z,0
2018-09-05T02:10:02.884Z,0
2018-09-05T02:15:03.328Z,0
2018-09-05T02:20:02.777Z,0
2018-09-05T02:25:03.270Z,0
2018-09-05T02:30:02.780Z,0
2018-09-05T02:35:03.173Z,0
2018-09-05T02:40:02.666Z,0
2018-09-05T02:45:03.153Z,0
2018-09-05T02:50:02.560Z,0
2018-09-05T02:55:02.952Z,0
2018-09-05T03:00:02.388Z,0
2018-09-05T03:05:02.787Z,0
2018-09-05T03:10:03.312Z,0
2018-09-05T03:15:02.710Z,0
2018-09-05T03:20:03.133Z,0
2018-09-05T03:25:02.598Z,0
2018-09-05T03:30:03.033Z,0
2018-09-05T03:35:02.492Z,0
2018-09-05T03:40:02.958Z,0
2018-09-05T03:45:02.358Z,0
2018-09-05T03:50:02.764Z,0
2018-09-05T03:55:03.206Z,0
2018-09-05T04:00:02.989Z,0
2018-09-05T04:05:02.542Z,0
2018-09-05T04:10:02.435Z,0
2018-09-05T04:15:02.881Z,1
2018-09-05T04:20:02.722Z,2
2018-09-05T04:25:03.075Z,4
2018-09-05T04:30:02.687Z,9
2018-09-05T04:35:03.159Z,18
2018-09-05T04:40:02.643Z,27
2018-09-05T04:45:03.457Z,38
2018-09-05T04:50:03.036Z,54
2018-09-05T04:55:02.474Z,67
2018-09-05T05:00:02.889Z,142
2018-09-05T05:05:03.332Z,270
2018-09-05T05:10:02.883Z,401
2018-09-05T05:15:03.274Z,531
2018-09-05T05:20:02.608Z,650
2018-09-05T05:25:03.054Z,891
2018-09-05T05:30:02.541Z,1000
2018-09-05T05:35:02.933Z,1000
2018-09-05T05:40:02.454Z,1000
2018-09-05T05:45:03.032Z,1000
2018-09-05T05:50:02.429Z,1000
2018-09-05T05:55:02.857Z,2000
2018-09-05T06:00:02.711Z,2000
2018-09-05T06:05:03.151Z,2000
2018-09-05T06:10:02.642Z,2000
2018-09-05T06:15:03.090Z,2000
2018-09-05T06:20:02.435Z,2000
2018-09-05T06:25:02.843Z,3000
2018-09-05T06:30:03.207Z,3000
2018-09-05T06:35:02.609Z,3000
2018-09-05T06:40:03.047Z,3000
2018-09-05T06:45:02.633Z,4000
2018-09-05T06:50:02.554Z,4000
2018-09-05T06:55:02.952Z,5000
2018-09-05T07:00:02.423Z,5000
2018-09-05T07:05:02.980Z,5000
2018-09-05T07:10:02.595Z,6000
2018-09-05T07:15:02.436Z,6000
2018-09-05T07:20:02.913Z,6000
2018-09-05T07:25:02.538Z,6000
2018-09-05T07:30:02.683Z,6000
2018-09-05T07:35:03.085Z,6000
2018-09-05T07:40:02.519Z,7000
2018-09-05T07:45:02.923Z,7000
2018-09-05T07:50:03.367Z,7000
2018-09-05T07:55:02.812Z,7000
2018-09-05T08:00:03.227Z,10000
2018-09-05T08:05:02.715Z,21000
2018-09-05T08:10:03.301Z,16000
2018-09-05T08:15:02.779Z,27000
2018-09-05T08:20:03.219Z,30000
2018-09-05T08:25:02.574Z,26000
2018-09-05T08:30:03.091Z,32000
2018-09-05T08:35:03.107Z,32000
2018-09-05T08:40:03.023Z,32000
2018-09-05T08:45:02.895Z,32000
2018-09-05T08:50:02.424Z,32000
2018-09-05T08:55:03.015Z,33000
2018-09-05T09:00:02.486Z,34000
2018-09-05T09:05:03.176Z,37000
2018-09-05T09:10:03.031Z,39000
2018-09-05T09:15:02.504Z,39000
2018-09-05T09:20:02.986Z,40000
2018-09-05T09:25:02.469Z,33000
2018-09-05T09:30:02.926Z,42000
2018-09-05T09:35:02.388Z,40000
2018-09-05T09:40:02.806Z,19000
2018-09-05T09:45:03.211Z,41000
2018-09-05T09:50:02.658Z,36000
2018-09-05T09:55:03.086Z,48000
2018-09-05T10:00:02.520Z,44000
2018-09-05T10:05:02.949Z,44000
2018-09-05T10:10:02.951Z,44000
2018-09-05T10:15:03.372Z,38000
2018-09-05T10:20:03.093Z,18000
2018-09-05T10:25:02.438Z,11000
2018-09-05T10:30:02.861Z,12000
2018-09-05T10:35:03.684Z,13000
2018-09-05T10:40:03.117Z,16000
2018-09-05T10:45:02.561Z,13000
2018-09-05T10:50:03.009Z,13000
2018-09-05T10:55:02.445Z,14000
2018-09-05T11:00:02.869Z,16000
2018-09-05T11:05:02.584Z,16000
2018-09-05T11:10:03.091Z,17000
2018-09-05T11:15:02.474Z,20000
2018-09-05T11:20:02.857Z,20000
2018-09-05T11:25:02.373Z,22000
2018-09-05T11:30:02.761Z,20000
2018-09-05T11:35:03.145Z,43000
2018-09-05T11:40:02.599Z,31000
2018-09-05T11:45:03.022Z,16000
2018-09-05T11:50:02.407Z,38000
2018-09-05T11:55:02.865Z,23000
2018-09-05T12:00:03.315Z,44000
2018-09-05T12:05:02.883Z,31000
2018-09-05T12:10:02.735Z,42000
2018-09-05T12:15:03.143Z,34000
2018-09-05T12:20:02.611Z,21000
2018-09-05T12:25:03.015Z,18000
2018-09-05T12:30:02.470Z,47000
2018-09-05T12:35:02.913Z,49000
2018-09-05T12:40:03.337Z,28000
2018-09-05T12:45:02.736Z,13000
2018-09-05T12:50:03.247Z,14000
2018-09-05T12:55:02.666Z,16000
2018-09-05T13:00:03.094Z,16000
2018-09-05T13:05:02.650Z,15000
2018-09-05T13:10:02.682Z,18000
2018-09-05T13:15:03.095Z,16000
2018-09-05T13:20:02.534Z,19000
2018-09-05T13:25:02.929Z,13000
2018-09-05T13:30:02.352Z,13000
2018-09-05T13:35:02.783Z,15000
2018-09-05T13:40:03.348Z,12000
2018-09-05T13:45:02.998Z,12000
2018-09-05T13:50:02.696Z,15000
2018-09-05T13:55:03.178Z,14000
2018-09-05T14:00:02.756Z,13000
2018-09-05T14:05:03.259Z,14000
2018-09-05T14:10:02.761Z,18000
2018-09-05T14:15:03.426Z,10000
2018-09-05T14:20:02.804Z,11000
2018-09-05T14:25:03.308Z,12000
2018-09-05T14:30:02.751Z,11000
2018-09-05T14:35:03.168Z,11000
2018-09-05T14:40:02.767Z,12000
2018-09-05T14:45:02.840Z,12000
2018-09-05T14:50:03.256Z,16000
2018-09-05T14:55:02.636Z,17000
2018-09-05T15:00:03.122Z,25000
2018-09-05T15:05:02.534Z,25000
2018-09-05T15:10:03.005Z,16000
2018-09-05T15:15:02.395Z,9000
2018-09-05T15:20:02.828Z,8000
2018-09-05T15:25:03.265Z,5000
2018-09-05T15:30:02.808Z,5000
2018-09-05T15:35:03.320Z,5000
2018-09-05T15:40:02.759Z,6000
2018-09-05T15:45:03.198Z,8000
2018-09-05T15:50:02.626Z,5000
2018-09-05T15:55:03.275Z,5000
2018-09-05T16:00:02.774Z,4000
2018-09-05T16:05:03.190Z,3000
2018-09-05T16:10:02.641Z,3000
2018-09-05T16:15:03.197Z,3000
2018-09-05T16:20:02.774Z,2000
2018-09-05T16:25:03.171Z,2000
2018-09-05T16:30:02.559Z,2000
2018-09-05T16:35:02.991Z,2000
2018-09-05T16:40:02.442Z,1000
2018-09-05T16:45:02.882Z,1000
2018-09-05T16:50:03.343Z,1000
2018-09-05T16:55:02.735Z,1000
2018-09-05T17:00:03.113Z,3000
2018-09-05T17:05:02.544Z,2000
2018-09-05T17:10:03.104Z,3000
2018-09-05T17:15:02.528Z,3000
2018-09-05T17:20:02.962Z,3000
2018-09-05T17:25:02.394Z,2000
2018-09-05T17:30:02.802Z,1000
2018-09-05T17:35:03.403Z,871
2018-09-05T17:40:03.045Z,614
2018-09-05T17:45:02.487Z,483
2018-09-05T17:50:02.905Z,362
2018-09-05T17:55:02.370Z,259
2018-09-05T18:00:02.804Z,129
2018-09-05T18:05:03.218Z,81
2018-09-05T18:10:02.935Z,66
2018-09-05T18:15:02.949Z,54
2018-09-05T18:20:02.379Z,41
2018-09-05T18:25:02.780Z,29
2018-09-05T18:30:03.198Z,14
2018-09-05T18:35:02.701Z,7
2018-09-05T18:40:03.119Z,3
2018-09-05T18:45:02.546Z,1
2018-09-05T18:50:03.081Z,1
2018-09-05T18:55:02.829Z,0
2018-09-05T19:00:02.543Z,0
2018-09-05T19:05:03.300Z,0
2018-09-05T19:10:02.791Z,0
2018-09-05T19:15:03.185Z,0
2018-09-05T19:20:02.583Z,0
2018-09-05T19:25:03.289Z,0
2018-09-05T19:30:03.149Z,0
2018-09-05T19:35:02.604Z,0
2018-09-05T19:40:03.272Z,0
2018-09-05T19:45:02.664Z,0
2018-09-05T19:50:03.187Z,0
2018-09-05T19:55:02.676Z,0
2018-09-05T20:00:03.302Z,0
2018-09-05T20:05:02.684Z,0
2018-09-05T20:10:03.213Z,0
2018-09-05T20:15:02.669Z,0
2018-09-05T20:20:03.144Z,0
2018-09-05T20:25:02.649Z,0
2018-09-05T20:30:03.062Z,0
2018-09-05T20:35:02.547Z,0
2018-09-05T20:40:03.021Z,0
2018-09-05T20:45:02.444Z,0
2018-09-05T20:50:02.807Z,0
2018-09-05T20:55:03.256Z,0
2018-09-05T21:00:02.732Z,0
2018-09-05T21:05:03.270Z,0
2018-09-05T21:10:03.056Z,0
2018-09-05T21:15:02.530Z,0
2018-09-05T21:20:03.126Z,0
2018-09-05T21:25:02.533Z,0
2018-09-05T21:30:03.176Z,0
2018-09-05T21:35:02.576Z,0
2018-09-05T21:40:03.158Z,0
2018-09-05T21:45:02.770Z,0
2018-09-05T21:50:03.148Z,0
2018-09-05T21:55:02.641Z,0
2018-09-05T22:00:03.116Z,0
2018-09-05T22:05:02.619Z,0
2018-09-05T22:10:02.629Z,0
2018-09-05T22:15:02.491Z,0
2018-09-05T22:20:02.930Z,0
2018-09-05T22:25:02.495Z,0
2018-09-05T22:30:02.957Z,0
2018-09-05T22:35:02.518Z,0
2018-09-05T22:40:03.174Z,0
2018-09-05T22:45:02.514Z,0
2018-09-05T22:50:02.912Z,0
2018-09-05T22:55:02.465Z,0
2018-09-05T23:00:02.927Z,0
2018-09-05T23:05:02.885Z,0
2018-09-05T23:10:02.542Z,0
2018-09-05T23:15:02.895Z,0
2018-09-05T23:20:03.370Z,0
2018-09-05T23:25:02.881Z,0
2018-09-05T23:30:03.386Z,0
2018-09-05T23:35:02.777Z,0
2018-09-05T23:40:03.301Z,0
2018-09-05T23:45:02.656Z,0
2018-09-05T23:50:03.073Z,0
2018-09-05T23:55:02.414Z,0
